Omskiy-141 — UGZK — position and weather

sailwx.info

Track history (hours):
 
Tides and Currents Weather Stations Pressure Air Temp Water Temp Dewpoint Dewpoint Depression Visibility Wind Speed Wind Dir Waves Ship Positions

Omskiy-141

Last reported at 2014-Sep-06 22:15 UTC. Time now 2014-Sep-20 13:56 UTC.
Position N 59°57' E 030°24'.
Warning: this ship's position is 13 days out of date.

Length 108 m; draft 2.6 m.

Type: Cargo ship. MMSI: 273310600.

Date/timePositionNaut miles runAvg speedWind from/ knotsBaromVisibWave heightAir tempDewpointWater temp
2014-Sep-06 22:15N 59°57' E 030°24'4 6.0
2014-Sep-06 21:33N 59°56' E 030°16'101 3.6
2014-Sep-05 17:09N 59°58' E 026°55'6 8.9
2014-Sep-05 16:31N 59°59' E 026°43'8 8.7
2014-Sep-05 15:34N 59°57' E 026°27'9 9.3
2014-Sep-05 14:33N 59°55' E 026°09'11 9.2
2014-Sep-05 13:23N 59°52' E 025°49'8 9.2
2014-Sep-05 12:29N 59°50' E 025°33'27 9.0
2014-Sep-05 09:32N 59°44' E 024°41'9 9.1
2014-Sep-05 08:33N 59°42' E 024°24'28 8.8
2014-Sep-05 05:25N 59°27' E 023°38'66 7.2
2014-Sep-04 20:13N 58°21' E 023°31'44 9.0
2014-Sep-04 15:21N 57°38' E 023°47'  
2014-Sep-02 07:22N 59°60' E 026°20'7 8.4
2014-Sep-02 06:32N 60°01' E 026°34'107 8.1
2014-Sep-01 17:17N 59°54' E 030°08'7 0.4
2014-Aug-31 23:33N 59°57' E 030°19'  
Track history (hours):
 
Tides and Currents Weather Stations Pressure Air Temp Water Temp Dewpoint Dewpoint Depression Visibility Wind Speed Wind Dir Waves Ship Positions

Omskiy-141

Last reported at 2014-Sep-06 22:15 UTC. Time now 2014-Sep-20 13:56 UTC.
Position N 59°57' E 030°24'.
Warning: this ship's position is 13 days out of date.

Length 108 m; draft 2.6 m.

Type: Cargo ship. MMSI: 273310600.

Date/timePositionNaut miles runAvg speedWind from/ knotsBaromVisibWave heightAir tempDewpointWater temp
2014-Sep-06 22:15N 59°57' E 030°24'4 6.0
2014-Sep-06 21:33N 59°56' E 030°16'101 3.6
2014-Sep-05 17:09N 59°58' E 026°55'6 8.9
2014-Sep-05 16:31N 59°59' E 026°43'8 8.7
2014-Sep-05 15:34N 59°57' E 026°27'9 9.3
2014-Sep-05 14:33N 59°55' E 026°09'11 9.2
2014-Sep-05 13:23N 59°52' E 025°49'8 9.2
2014-Sep-05 12:29N 59°50' E 025°33'27 9.0
2014-Sep-05 09:32N 59°44' E 024°41'9 9.1
2014-Sep-05 08:33N 59°42' E 024°24'28 8.8
2014-Sep-05 05:25N 59°27' E 023°38'66 7.2
2014-Sep-04 20:13N 58°21' E 023°31'44 9.0
2014-Sep-04 15:21N 57°38' E 023°47'  
2014-Sep-02 07:22N 59°60' E 026°20'7 8.4
2014-Sep-02 06:32N 60°01' E 026°34'107 8.1
2014-Sep-01 17:17N 59°54' E 030°08'7 0.4
2014-Aug-31 23:33N 59°57' E 030°19'  

Dump ship's entire track history